Alamo, GA

5:21 PM EDT on March 28, 2017 (GMT -0400)
Mock Hill | | Change Station

Elev 210 ft 32.17 °N, 82.59 °W | Updated 15 seconds ago

Partly Cloudy
Partly Cloudy
77.4 °F
Feels Like 79 °F
N
1.1
Wind Variable Wind from North

Today
High -- | Low -- °F
--% Chance of Precip.
Yesterday
High -- | Low -- °F
Precip. -- in
Pressure 29.93 in
Visibility 10.0 miles
Clouds Scattered Clouds 6000 ft
Heat Index 79 °F
Dew Point 73 °F
Humidity 87%
Rainfall 0.00 in
Snow Depth Not available.
7:24 AM 7:48 PM
New Moon, 1% visible
METAR KAZE 282115Z AUTO 25005KT 10SM SCT060 29/15 A2993 RMK AO2 T02940152
Pressure 29.93 in
Visibility 10.0 miles
Clouds Scattered Clouds 6000 ft
Heat Index 79 °F
Dew Point 73 °F
Humidity 87%
Rainfall 0.00 in
Snow Depth Not available.
7:24 AM 7:48 PM
New Moon, 1% visible
METAR KAZE 282115Z AUTO 25005KT 10SM SCT060 29/15 A2993 RMK AO2 T02940152

Get Severe Weather Alerts

Thanks for signing up!

Be on the lookout for a verification email in your inbox.

You'll start receiving the daily forecast at 8 AM.

×

10-Day Weather Forecast

Almanac

Astronomy

Mar. 28, 2017 Rise Set
Actual Time
Civil Twilight
Nautical Twilight
Astronomical Twilight
Moon
Length of Visible Light
Length of Day
Tomorrow will be .
, % of the Moon is Illuminated

Today's Extremes

State Highs State Lows

Community

WunderPhotos

Upload Photos

1,962,540 photos uploaded!

WunderBlog® & News

Nearby

Air Quality

  Air Quality AQ Index Pollutant
Not available.

Snow Depth

Station Depth Elevation

Earthquake Activity

City Distance Mag. Time & Date
Minimum magnitude displayed is 2.5.

Earthquake Activity

City Distance Mag. Time & Date
Minimum magnitude displayed is 2.5.

Coastal Water Temperatures

Place Temperature

Stations

Nearby Weather Stations

Station Location Temp. Windchill Dew Point Humidity Wind Precip. Elev Updated Type
                   

Watches & Warnings

There are currently no watches in effect.